createdAt,value
2023-02-02T00:03:08.302Z,1008.492
2023-02-02T00:23:07.253Z,1008.559
2023-02-02T00:43:07.963Z,1008.551
2023-02-02T01:03:08.874Z,1008.733
2023-02-02T01:23:07.769Z,1008.766
2023-02-02T01:43:07.509Z,1008.836
2023-02-02T02:03:08.291Z,1008.991
2023-02-02T02:23:07.264Z,1009.156
2023-02-02T02:43:08.061Z,1009.213
2023-02-02T03:03:08.774Z,1009.345
2023-02-02T03:23:07.564Z,1009.314
2023-02-02T03:43:07.426Z,1009.301
2023-02-02T04:03:08.507Z,1009.461
2023-02-02T04:23:07.365Z,1009.498
2023-02-02T04:43:07.272Z,1009.622
2023-02-02T05:03:08.088Z,1009.635
2023-02-02T05:23:07.972Z,1009.661
2023-02-02T05:43:07.331Z,1009.702
2023-02-02T06:03:08.707Z,1009.824
2023-02-02T06:23:07.713Z,1010.077
2023-02-02T06:43:07.735Z,1010.128
2023-02-02T07:03:08.555Z,1010.395
2023-02-02T07:23:07.331Z,1010.511
2023-02-02T07:43:08.187Z,1010.756
2023-02-02T08:03:09.208Z,1011.023
2023-02-02T08:23:08.053Z,1011.093
2023-02-02T08:43:08.999Z,1011.199
2023-02-02T09:03:08.534Z,1011.493
2023-02-02T09:23:07.493Z,1011.782
2023-02-02T09:43:07.473Z,1012.085
2023-02-02T10:03:08.522Z,1012.375
2023-02-02T10:23:07.636Z,1012.532
2023-02-02T10:43:07.486Z,1012.636
2023-02-02T11:03:08.593Z,1012.853
2023-02-02T11:23:07.686Z,1012.837
2023-02-02T11:43:07.588Z,1012.946
2023-02-02T12:03:08.385Z,1013.016
2023-02-02T12:23:07.387Z,1013.158
2023-02-02T12:43:07.599Z,1013.184
2023-02-02T13:03:08.462Z,1013.016
2023-02-02T13:23:07.193Z,1013.193
2023-02-02T13:43:07.421Z,1013.251
2023-02-02T14:03:08.371Z,1013.248
2023-02-02T14:23:07.335Z,1013.386
2023-02-02T14:43:07.409Z,1013.556
2023-02-02T15:03:08.751Z,1013.659
2023-02-02T15:23:07.740Z,1013.804
2023-02-02T15:43:07.823Z,1013.853
2023-02-02T16:03:08.675Z,1013.9
2023-02-02T16:23:07.680Z,1013.944
2023-02-02T16:43:07.749Z,1014.071
2023-02-02T17:03:08.879Z,1014.224
2023-02-02T17:23:07.832Z,1014.22
2023-02-02T17:43:08.028Z,1014.287
2023-02-02T18:03:09.502Z,1014.214
2023-02-02T18:23:07.446Z,1014.054
2023-02-02T18:43:07.601Z,1013.962
2023-02-02T19:03:08.508Z,1013.846
2023-02-02T19:23:07.531Z,1013.948
2023-02-02T19:43:07.597Z,1013.966
2023-02-02T20:03:09.062Z,1013.922
2023-02-02T20:23:07.982Z,1013.823
2023-02-02T20:43:08.201Z,1013.94
2023-02-02T21:03:09.125Z,1013.878
2023-02-02T21:23:08.163Z,1013.92
2023-02-02T21:43:07.300Z,1014.037
2023-02-02T22:03:08.595Z,1014.096
2023-02-02T22:23:07.804Z,1013.964
2023-02-02T22:43:07.851Z,1013.954
2023-02-02T23:03:08.557Z,1013.506
2023-02-02T23:23:07.382Z,1013.739
2023-02-02T23:43:08.294Z,1013.496
